Matsuyama Airport
RJOM : now visible

Airfield :











YOU CAN JOIN US ON...

 
LOGIN :

Register | Disclaimer

   EN    FR    IT 

 









Legend :    VFR   Marginal VFR   IFR   Intensive IFR   Very Intensive IFR
Visi :
Ceiling :
>= 8 km
>= 3000ft
5 to 8 km
1000 to 3000 ft
1500m to 5 km
500 to 1000 ft
800 to 1500m
200 to 500 ft
< 800m
< 200 ft
Symbols :   Thunderstorms  Fog  Heavy snow  Heavy precipitations  Wind > 20 kt







- Airport Elevation : 25 ft
- IATA code : MYJ


RJOM - Matsuyama

CURRENT METAR :
  • 260000Z VRB02KT 9999 FEW015 SCT080 BKN130 24/21 Q1014

EXPIRED METARs :
  • 252300Z 12003KT 9999 FEW015 SCT080 BKN120 23/20 Q1014
  • 252200Z 13006KT 9999 FEW020 SCT110 BKN180 22/20 Q1013
  • 252110Z 12004KT 9999 FEW020 SCT110 BKN180 21/20 Q1013 RMK 1CU020 3AC110 6AC180 A2993

TAF TAF RJOM
Valid from the 26 at 00:00 until the 27 at 06:00 UTC


252305Z 2600/2706 24006KT 9999 FEW030 SCT060
BECMG 2610/2612 12005KT
TEMPO 2618/2700 4000 RA BR FEW003 SCT005 BKN008
BECMG 2703/2706 18013KT
No reported NOTAMs for that airfield.



MET'MAP, your aeronautical weather chart ! - Copyright ORBIFLY December 2007 - Disclaimer

ORBIFLY MET'MAP TEAM :

Programming & Development : Alexandra Zaïnal
Concept & Development : Baudouin d'Aumeries
Co-Development & Prog : Marc-Olivier Méhu
Technical & hardware support : Manuel Goepfert

Contact : metmap@orbifly.com




SOURCES & CREDITS :

   NOAA       Earth
Advisory